Time,TemperatureF,DewpointF,PressureIn,WindDirection,WindDirectionDegrees,WindSpeedMPH,WindSpeedGustMPH,Humidity,HourlyPrecipIn,Conditions,Clouds,dailyrainin,SoftwareType,DateUTC
2013-09-05 00:00:00,60.8,48.6,29.96,North,1,0.0,0.0,64,0.00,,---,0.00,VWS V14.01,2013-09-05 07:00:00,
2013-09-05 00:20:00,59.7,48.4,29.96,North,1,0.0,0.0,66,0.00,,---,0.00,VWS V14.01,2013-09-05 07:20:00,
2013-09-05 00:40:00,59.9,48.5,29.96,North,1,0.0,0.0,66,0.00,,---,0.00,VWS V14.01,2013-09-05 07:40:00,
2013-09-05 01:00:00,59.7,48.4,29.96,North,1,0.0,0.0,66,0.00,,---,0.00,VWS V14.01,2013-09-05 08:00:00,
2013-09-05 01:20:00,60.1,48.7,29.93,North,1,0.0,0.0,66,0.00,,---,0.00,VWS V14.01,2013-09-05 08:20:00,
2013-09-05 01:40:00,61.3,49.1,29.96,North,1,0.0,0.0,64,0.00,,---,0.00,VWS V14.01,2013-09-05 08:40:00,
2013-09-05 02:00:00,61.9,49.2,29.96,North,1,0.0,0.0,63,0.00,,---,0.00,VWS V14.01,2013-09-05 09:00:00,
2013-09-05 02:20:00,61.0,48.7,29.96,North,1,0.0,0.0,64,0.00,,---,0.00,VWS V14.01,2013-09-05 09:20:00,
2013-09-05 02:40:00,60.1,48.3,29.93,North,1,0.0,0.0,65,0.00,,---,0.00,VWS V14.01,2013-09-05 09:40:00,
2013-09-05 03:00:00,59.9,48.1,29.93,North,1,0.0,0.0,65,0.00,,---,0.00,VWS V14.01,2013-09-05 10:00:00,
2013-09-05 03:20:00,58.8,47.1,29.93,North,1,0.0,2.2,65,0.00,,---,0.00,VWS V14.01,2013-09-05 10:20:00,
2013-09-05 03:40:00,58.5,48.3,29.93,North,1,0.0,0.0,69,0.00,,---,0.00,VWS V14.01,2013-09-05 10:40:00,
2013-09-05 04:00:00,58.6,48.5,29.93,North,1,0.0,0.0,69,0.00,,---,0.00,VWS V14.01,2013-09-05 11:00:00,
2013-09-05 04:20:00,58.8,47.9,29.93,North,1,0.0,0.0,67,0.00,,---,0.00,VWS V14.01,2013-09-05 11:20:00,
2013-09-05 04:40:00,57.9,47.4,29.93,North,1,0.0,0.0,68,0.00,,---,0.00,VWS V14.01,2013-09-05 11:40:00,
2013-09-05 05:00:00,57.7,47.7,29.93,North,1,0.0,0.0,69,0.00,,---,0.00,VWS V14.01,2013-09-05 12:00:00,
2013-09-05 05:20:00,57.7,48.0,29.93,North,1,0.0,0.0,70,0.00,,---,0.00,VWS V14.01,2013-09-05 12:20:00,
2013-09-05 05:40:00,57.4,47.3,29.93,North,1,0.0,0.0,69,0.00,,---,0.00,VWS V14.01,2013-09-05 12:40:00,
2013-09-05 06:00:00,57.6,47.9,29.93,North,1,0.0,0.0,70,0.00,,---,0.00,VWS V14.01,2013-09-05 13:00:00,
2013-09-05 06:20:00,57.7,47.3,29.93,North,1,0.0,0.0,68,0.00,,---,0.00,VWS V14.01,2013-09-05 13:20:00,
2013-09-05 06:40:00,58.5,46.8,29.93,North,1,0.0,0.0,65,0.00,,---,0.00,VWS V14.01,2013-09-05 13:40:00,
2013-09-05 07:00:00,59.4,48.0,29.93,North,1,0.0,0.0,66,0.00,,---,0.00,VWS V14.01,2013-09-05 14:00:00,
2013-09-05 07:20:00,61.5,49.2,29.93,North,1,0.0,0.0,64,0.00,,---,0.00,VWS V14.01,2013-09-05 14:20:00,
2013-09-05 07:40:00,64.0,48.5,29.96,NNE,27,0.0,0.0,57,0.00,,---,0.00,VWS V14.01,2013-09-05 14:40:00,
2013-09-05 08:00:00,67.1,49.9,29.96,NNE,27,0.0,0.0,54,0.00,,---,0.00,VWS V14.01,2013-09-05 15:00:00,
2013-09-05 08:20:00,69.8,48.7,29.96,NNE,12,0.0,0.0,47,0.00,,---,0.00,VWS V14.01,2013-09-05 15:20:00,
2013-09-05 08:40:00,73.0,51.1,29.96,NNW,335,0.0,3.6,46,0.00,,---,0.00,VWS V14.01,2013-09-05 15:40:00,
2013-09-05 09:00:00,76.1,52.0,29.96,NNW,335,0.0,2.7,43,0.00,,---,0.00,VWS V14.01,2013-09-05 16:00:00,
2013-09-05 09:20:00,79.5,53.1,29.96,ESE,120,0.0,5.8,40,0.00,,---,0.00,VWS V14.01,2013-09-05 16:20:00,
2013-09-05 09:40:00,81.3,54.0,29.96,South,189,5.8,10.1,39,0.00,,---,0.00,VWS V14.01,2013-09-05 16:40:00,
2013-09-05 10:00:00,82.2,54.8,29.96,South,171,5.4,8.1,39,0.00,,---,0.00,VWS V14.01,2013-09-05 17:00:00,
2013-09-05 10:20:00,85.3,56.8,29.96,SSE,150,4.9,8.7,38,0.00,,---,0.00,VWS V14.01,2013-09-05 17:20:00,
2013-09-05 10:40:00,86.0,59.6,29.96,SW,234,5.8,11.0,41,0.00,,---,0.00,VWS V14.01,2013-09-05 17:40:00,
2013-09-05 11:00:00,86.7,60.2,29.96,South,188,6.7,12.3,41,0.00,,---,0.00,VWS V14.01,2013-09-05 18:00:00,
2013-09-05 11:20:00,88.5,61.1,29.96,ESE,120,4.0,9.6,40,0.00,,---,0.00,VWS V14.01,2013-09-05 18:20:00,
2013-09-05 11:40:00,87.6,61.0,29.96,SSE,151,3.1,11.9,41,0.00,,---,0.00,VWS V14.01,2013-09-05 18:40:00,
2013-09-05 12:00:00,87.1,60.5,29.96,SSW,209,5.4,9.6,41,0.00,,---,0.00,VWS V14.01,2013-09-05 19:00:00,
2013-09-05 12:20:00,88.2,60.8,29.96,South,170,3.1,11.9,40,0.00,,---,0.00,VWS V14.01,2013-09-05 19:20:00,
2013-09-05 12:40:00,88.7,63.3,29.96,South,189,8.1,12.8,43,0.00,,---,0.00,VWS V14.01,2013-09-05 19:40:00,
2013-09-05 13:00:00,89.8,63.7,29.96,SE,141,0.0,13.2,42,0.00,,---,0.00,VWS V14.01,2013-09-05 20:00:00,
2013-09-05 13:20:00,91.9,65.6,29.96,SW,218,4.9,11.0,42,0.00,,---,0.00,VWS V14.01,2013-09-05 20:20:00,
2013-09-05 13:40:00,97.0,69.4,29.96,SE,143,5.8,11.0,41,0.00,,---,0.00,VWS V14.01,2013-09-05 20:40:00,
2013-09-05 14:00:00,86.5,61.4,29.93,South,184,3.6,11.0,43,0.00,,---,0.00,VWS V14.01,2013-09-05 21:00:00,
2013-09-05 14:20:00,81.5,56.2,29.93,SSE,167,6.3,11.0,42,0.00,,---,0.00,VWS V14.01,2013-09-05 21:20:00,
2013-09-05 14:40:00,75.4,51.3,29.96,SSW,204,4.0,12.8,43,0.00,,---,0.00,VWS V14.01,2013-09-05 21:40:00,
2013-09-05 15:00:00,70.7,49.5,29.96,WSW,244,4.5,11.0,47,0.00,,---,0.00,VWS V14.01,2013-09-05 22:00:00,
2013-09-05 19:00:00,71.2,51.1,29.93,NNE,12,0.0,0.0,49,0.00,,---,0.00,VWS V14.01,2013-09-06 02:00:00,
2013-09-05 19:20:00,68.9,51.1,29.93,NNW,343,0.0,0.0,53,0.00,,---,0.00,VWS V14.01,2013-09-06 02:20:00,
2013-09-05 19:40:00,68.0,50.2,29.93,NNW,343,0.0,0.0,53,0.00,,---,0.00,VWS V14.01,2013-09-06 02:40:00,
2013-09-05 20:00:00,67.8,50.6,29.93,NNW,344,0.0,0.0,54,0.00,,---,0.00,VWS V14.01,2013-09-06 03:00:00,
2013-09-05 20:20:00,66.4,50.2,29.96,NNW,344,0.0,0.0,56,0.00,,---,0.00,VWS V14.01,2013-09-06 03:20:00,
2013-09-05 20:40:00,64.6,52.1,29.96,NNW,344,2.2,2.7,64,0.00,,---,0.00,VWS V14.01,2013-09-06 03:40:00,
2013-09-05 21:00:00,63.5,51.5,29.96,NNW,344,0.0,2.2,65,0.00,,---,0.00,VWS V14.01,2013-09-06 04:00:00,
2013-09-05 21:20:00,63.0,51.0,29.96,NNW,344,0.0,2.2,65,0.00,,---,0.00,VWS V14.01,2013-09-06 04:20:00,
2013-09-05 21:40:00,62.1,51.0,29.96,NNW,344,0.0,0.0,67,0.00,,---,0.00,VWS V14.01,2013-09-06 04:40:00,
2013-09-05 22:00:00,61.5,51.3,29.96,NNW,344,0.0,0.0,69,0.00,,---,0.00,VWS V14.01,2013-09-06 05:00:00,
2013-09-05 22:20:00,62.1,51.4,29.96,NNW,344,0.0,0.0,68,0.00,,---,0.00,VWS V14.01,2013-09-06 05:20:00,
2013-09-05 22:40:00,60.6,50.4,29.96,NNW,344,0.0,0.0,69,0.00,,---,0.00,VWS V14.01,2013-09-06 05:40:00,
2013-09-05 23:00:00,60.1,51.0,29.96,NNW,344,0.0,0.0,72,0.00,,---,0.00,VWS V14.01,2013-09-06 06:00:00,
2013-09-05 23:20:00,60.6,49.6,29.96,North,10,2.7,3.1,67,0.00,,---,0.00,VWS V14.01,2013-09-06 06:20:00,
2013-09-05 23:40:00,60.3,50.1,29.96,North,10,0.0,2.7,69,0.00,,---,0.00,VWS V14.01,2013-09-06 06:40:00,